createdAt,value
2019-05-18T00:02:07.671Z,32.28
2019-05-18T00:04:36.668Z,29.40
2019-05-18T00:07:05.635Z,33.13
2019-05-18T00:09:34.559Z,31.95
2019-05-18T00:12:03.549Z,32.85
2019-05-18T00:14:32.575Z,30.82
2019-05-18T00:17:01.501Z,31.33
2019-05-18T00:19:31.563Z,33.78
2019-05-18T00:22:00.463Z,32.15
2019-05-18T00:24:29.390Z,34.10
2019-05-18T00:26:58.317Z,35.50
2019-05-18T00:29:27.326Z,34.10
2019-05-18T00:31:56.232Z,35.03
2019-05-18T00:34:25.224Z,35.35
2019-05-18T00:36:54.153Z,36.73
2019-05-18T00:39:23.158Z,38.83
2019-05-18T00:41:52.126Z,37.63
2019-05-18T00:44:21.051Z,35.68
2019-05-18T00:46:49.972Z,37.67
2019-05-18T00:49:18.960Z,37.70
2019-05-18T00:51:47.873Z,38.67
2019-05-18T00:54:16.784Z,37.58
2019-05-18T00:56:45.686Z,37.67
2019-05-18T00:59:16.013Z,40.85
2019-05-18T01:01:45.413Z,38.70
2019-05-18T01:04:14.338Z,39.23
2019-05-18T01:06:43.241Z,41.92
2019-05-18T01:09:12.159Z,41.45
2019-05-18T01:11:41.094Z,40.08
2019-05-18T01:14:10.657Z,39.85
2019-05-18T01:16:39.580Z,42.48
2019-05-18T01:19:08.494Z,41.45
2019-05-18T01:21:37.422Z,42.95
2019-05-18T01:24:06.409Z,47.90
2019-05-18T01:26:35.486Z,44.50
2019-05-18T01:29:04.979Z,45.50
2019-05-18T01:31:34.085Z,46.90
2019-05-18T01:34:02.996Z,45.15
2019-05-18T01:36:31.984Z,45.52
2019-05-18T01:39:00.885Z,48.30
2019-05-18T01:41:31.686Z,44.83
2019-05-18T01:44:00.648Z,50.50
2019-05-18T01:46:29.558Z,49.98
2019-05-18T01:48:58.473Z,50.85
2019-05-18T01:51:27.380Z,46.80
2019-05-18T01:53:56.298Z,47.90
2019-05-18T01:56:25.241Z,48.42
2019-05-18T01:58:54.211Z,50.43
2019-05-18T02:01:24.700Z,51.77
2019-05-18T02:03:53.614Z,53.02
2019-05-18T02:06:22.518Z,55.60
2019-05-18T02:08:51.429Z,56.25
2019-05-18T02:11:20.375Z,52.73
2019-05-18T02:13:49.333Z,52.25
2019-05-18T02:16:18.259Z,56.18
2019-05-18T02:18:47.268Z,56.80
2019-05-18T02:21:16.266Z,56.73
2019-05-18T02:23:45.189Z,58.08
2019-05-18T02:26:19.639Z,57.25
2019-05-18T02:28:48.579Z,55.50
2019-05-18T02:31:18.663Z,52.78
2019-05-18T02:33:47.665Z,57.00
2019-05-18T02:36:16.602Z,59.70
2019-05-18T02:38:45.662Z,57.73
2019-05-18T02:41:14.579Z,55.55
2019-05-18T02:43:43.508Z,60.48
2019-05-18T02:46:12.478Z,56.20
2019-05-18T02:48:49.682Z,57.62
2019-05-18T02:51:12.080Z,60.55
2019-05-18T02:53:41.028Z,60.78
2019-05-18T02:56:10.932Z,62.95
2019-05-18T02:58:39.899Z,59.60
2019-05-18T03:01:10.443Z,63.28
2019-05-18T03:03:39.340Z,60.75
2019-05-18T03:06:08.389Z,63.33
2019-05-18T03:08:37.298Z,62.40
2019-05-18T03:11:07.300Z,70.22
2019-05-18T03:13:36.275Z,66.72
2019-05-18T03:16:06.255Z,63.17
2019-05-18T03:18:35.166Z,61.50
2019-05-18T03:21:04.089Z,64.17
2019-05-18T03:23:32.983Z,66.25
2019-05-18T03:26:02.199Z,67.00
2019-05-18T03:28:31.137Z,68.20
2019-05-18T03:31:00.055Z,65.25
2019-05-18T03:33:30.344Z,63.52
2019-05-18T03:35:59.750Z,62.73
2019-05-18T03:38:28.771Z,71.05
2019-05-18T03:40:57.670Z,68.17
2019-05-18T03:43:26.595Z,67.60
2019-05-18T03:45:55.500Z,68.30
2019-05-18T03:48:24.415Z,71.00
2019-05-18T03:50:53.371Z,68.37
2019-05-18T03:53:22.305Z,66.67
2019-05-18T03:55:51.210Z,67.22
2019-05-18T03:58:20.140Z,69.32
2019-05-18T04:00:49.128Z,69.65
2019-05-18T04:03:18.052Z,68.28
2019-05-18T04:05:46.962Z,68.25
2019-05-18T04:08:15.895Z,64.10
2019-05-18T04:10:45.146Z,66.82
2019-05-18T04:13:14.563Z,63.63
2019-05-18T04:15:43.928Z,61.13
2019-05-18T04:18:13.271Z,65.15
2019-05-18T04:20:42.614Z,62.93
2019-05-18T04:23:11.956Z,62.83
2019-05-18T04:25:43.956Z,62.67
2019-05-18T04:28:12.338Z,63.23
2019-05-18T04:30:41.659Z,67.30
2019-05-18T04:33:11.031Z,63.33
2019-05-18T04:35:40.351Z,62.62
2019-05-18T04:38:10.868Z,64.15
2019-05-18T04:40:40.259Z,63.02
2019-05-18T04:43:09.627Z,66.02
2019-05-18T04:45:39.086Z,62.50
2019-05-18T04:48:08.447Z,65.83
2019-05-18T04:50:38.172Z,63.98
2019-05-18T04:53:07.589Z,66.70
2019-05-18T04:55:36.999Z,68.72
2019-05-18T04:58:06.438Z,70.08
2019-05-18T05:00:35.851Z,64.50
2019-05-18T05:03:05.189Z,63.05
2019-05-18T05:05:34.526Z,63.08
2019-05-18T05:08:03.873Z,63.13
2019-05-18T05:10:33.297Z,62.73
2019-05-18T05:13:02.650Z,62.75
2019-05-18T05:15:34.559Z,63.33
2019-05-18T05:18:03.903Z,63.28
2019-05-18T05:20:33.241Z,60.33
2019-05-18T05:23:02.582Z,56.50
2019-05-18T05:25:31.968Z,55.00
2019-05-18T05:28:01.363Z,53.92
2019-05-18T05:30:30.683Z,55.70
2019-05-18T05:33:00.669Z,53.80
2019-05-18T05:35:30.082Z,55.78
2019-05-18T05:37:59.436Z,50.25
2019-05-18T05:40:28.948Z,51.60
2019-05-18T05:42:58.327Z,49.50
2019-05-18T05:45:27.673Z,53.05
2019-05-18T05:47:57.000Z,49.93
2019-05-18T05:50:35.400Z,47.67
2019-05-18T05:52:57.406Z,43.80
2019-05-18T05:55:26.743Z,43.58
2019-05-18T05:57:56.137Z,45.70
2019-05-18T06:00:25.462Z,42.40
2019-05-18T06:02:54.793Z,42.90
2019-05-18T06:05:24.274Z,40.25
2019-05-18T06:07:53.662Z,38.25
2019-05-18T06:10:23.100Z,37.75
2019-05-18T06:12:53.047Z,38.78
2019-05-18T06:15:22.581Z,37.33
2019-05-18T06:17:52.024Z,37.20
2019-05-18T06:20:21.362Z,32.42
2019-05-18T06:22:51.335Z,29.30
2019-05-18T06:25:20.671Z,29.92
2019-05-18T06:27:50.010Z,29.15
2019-05-18T06:30:20.958Z,25.80
2019-05-18T06:32:50.301Z,22.45
2019-05-18T06:35:19.647Z,24.02
2019-05-18T06:37:48.999Z,20.72
2019-05-18T06:40:18.356Z,18.15
2019-05-18T06:42:48.014Z,19.30
2019-05-18T06:45:17.544Z,16.52
2019-05-18T06:47:48.509Z,15.05
2019-05-18T06:50:21.275Z,17.45
2019-05-18T06:52:50.639Z,16.95
2019-05-18T06:55:19.971Z,19.50
2019-05-18T06:57:50.898Z,14.68
2019-05-18T07:00:20.245Z,17.15
2019-05-18T07:02:49.656Z,14.83
2019-05-18T07:05:19.119Z,16.10
2019-05-18T07:07:48.511Z,17.25
2019-05-18T07:10:17.848Z,16.80
2019-05-18T07:12:47.254Z,13.83
2019-05-18T07:15:17.423Z,14.43
2019-05-18T07:17:46.773Z,16.07
2019-05-18T07:20:17.143Z,14.58
2019-05-18T07:22:46.487Z,14.35
2019-05-18T07:25:17.034Z,13.32
2019-05-18T07:27:49.270Z,12.28
2019-05-18T07:30:18.742Z,16.15
2019-05-18T07:32:48.081Z,14.45
2019-05-18T07:35:17.994Z,12.82
2019-05-18T07:37:47.351Z,14.00
2019-05-18T07:40:17.685Z,14.90
2019-05-18T07:42:47.106Z,11.95
2019-05-18T07:45:16.810Z,13.93
2019-05-18T07:47:46.198Z,13.85
2019-05-18T07:50:17.338Z,15.08
2019-05-18T07:52:51.692Z,15.40
2019-05-18T07:55:21.202Z,13.70
2019-05-18T07:57:50.291Z,14.18
2019-05-18T08:00:19.220Z,14.40
2019-05-18T08:02:48.135Z,13.98
2019-05-18T08:05:17.116Z,13.90
2019-05-18T08:07:46.090Z,12.55
2019-05-18T08:10:15.175Z,12.63
2019-05-18T08:12:44.087Z,13.45
2019-05-18T08:15:14.548Z,14.85
2019-05-18T08:17:43.555Z,12.65
2019-05-18T08:20:12.598Z,12.47
2019-05-18T08:22:41.519Z,14.15
2019-05-18T08:25:10.981Z,16.00
2019-05-18T08:27:39.984Z,13.93
2019-05-18T08:30:09.066Z,13.98
2019-05-18T08:32:38.074Z,14.23
2019-05-18T08:35:07.374Z,12.78
2019-05-18T08:37:36.417Z,15.30
2019-05-18T08:40:06.404Z,14.45
2019-05-18T08:42:35.405Z,13.22
2019-05-18T08:45:06.710Z,14.03
2019-05-18T08:47:35.632Z,13.00
2019-05-18T08:50:07.778Z,12.65
2019-05-18T08:52:36.739Z,13.62
2019-05-18T08:55:05.925Z,13.18
2019-05-18T08:57:38.583Z,13.60
2019-05-18T09:00:09.149Z,12.60
2019-05-18T09:02:38.159Z,14.25
2019-05-18T09:05:07.136Z,13.38
2019-05-18T09:07:36.121Z,13.10
2019-05-18T09:10:06.568Z,12.28
2019-05-18T09:12:35.491Z,12.78
2019-05-18T09:15:07.599Z,11.18
2019-05-18T09:17:37.692Z,13.95
2019-05-18T09:20:07.040Z,13.03
2019-05-18T09:22:36.057Z,10.80
2019-05-18T09:25:06.008Z,10.78
2019-05-18T09:27:35.148Z,12.45
2019-05-18T09:30:06.359Z,11.75
2019-05-18T09:32:35.319Z,12.93
2019-05-18T09:35:07.175Z,13.48
2019-05-18T09:37:36.522Z,11.63
2019-05-18T09:40:07.790Z,10.55
2019-05-18T09:42:37.127Z,9.78
2019-05-18T09:45:09.892Z,11.68
2019-05-18T09:47:39.313Z,12.78
2019-05-18T09:50:09.245Z,10.08
2019-05-18T09:52:46.507Z,9.70
2019-05-18T09:55:14.099Z,12.93
2019-05-18T09:57:43.428Z,10.65
2019-05-18T10:00:13.650Z,8.58
2019-05-18T10:02:43.037Z,9.25
2019-05-18T10:05:14.062Z,11.03
2019-05-18T10:07:43.475Z,11.10
2019-05-18T10:10:13.743Z,13.38
2019-05-18T10:12:43.865Z,10.30
2019-05-18T10:15:14.066Z,9.28
2019-05-18T10:17:43.445Z,9.48
2019-05-18T10:20:14.881Z,9.83
2019-05-18T10:22:55.056Z,9.43
2019-05-18T10:25:15.230Z,10.80
2019-05-18T10:27:44.581Z,9.43
2019-05-18T10:30:14.443Z,9.70
2019-05-18T10:32:43.830Z,9.28
2019-05-18T10:35:13.325Z,8.85
2019-05-18T10:37:44.263Z,10.65
2019-05-18T10:40:15.401Z,8.98
2019-05-18T10:42:44.810Z,10.48
2019-05-18T10:45:14.511Z,9.93
2019-05-18T10:47:43.855Z,11.35
2019-05-18T10:50:13.382Z,11.12
2019-05-18T10:52:43.794Z,11.78
2019-05-18T10:55:13.458Z,10.75
2019-05-18T10:57:42.859Z,11.12
2019-05-18T11:00:14.281Z,10.65
2019-05-18T11:02:45.977Z,11.18
2019-05-18T11:05:15.667Z,11.88
2019-05-18T11:07:45.083Z,11.12
2019-05-18T11:10:15.079Z,12.68
2019-05-18T11:12:45.127Z,9.75
2019-05-18T11:15:14.698Z,11.93
2019-05-18T11:17:44.041Z,10.90
2019-05-18T11:20:15.285Z,10.48
2019-05-18T11:22:44.700Z,11.50
2019-05-18T11:25:14.376Z,11.35
2019-05-18T11:27:43.730Z,11.15
2019-05-18T11:30:14.356Z,9.38
2019-05-18T11:32:44.173Z,10.05
2019-05-18T11:35:14.514Z,10.68
2019-05-18T11:37:43.893Z,9.93
2019-05-18T11:40:15.729Z,9.58
2019-05-18T11:42:45.113Z,10.30
2019-05-18T11:45:17.187Z,11.45
2019-05-18T11:47:46.554Z,10.48
2019-05-18T11:50:17.788Z,9.00
2019-05-18T11:52:54.143Z,8.38
2019-05-18T11:55:23.490Z,8.08
2019-05-18T11:57:53.561Z,10.38
2019-05-18T12:00:24.661Z,11.20
2019-05-18T12:02:54.145Z,10.00
2019-05-18T12:05:23.499Z,8.05
2019-05-18T12:07:52.912Z,7.50
2019-05-18T12:10:23.767Z,7.42
2019-05-18T12:12:53.255Z,8.18
2019-05-18T12:15:24.311Z,7.17
2019-05-18T12:17:53.627Z,9.20
2019-05-18T12:20:25.782Z,7.83
2019-05-18T12:22:55.096Z,10.35
2019-05-18T12:25:24.458Z,6.25
2019-05-18T12:27:53.875Z,6.45
2019-05-18T12:30:24.112Z,5.85
2019-05-18T12:32:53.430Z,5.35
2019-05-18T12:35:22.799Z,7.30
2019-05-18T12:37:52.123Z,7.15
2019-05-18T12:40:23.491Z,5.95
2019-05-18T12:42:52.834Z,7.80
2019-05-18T12:45:22.707Z,7.97
2019-05-18T12:47:52.172Z,7.33
2019-05-18T12:50:21.999Z,7.55
2019-05-18T12:52:51.484Z,8.55
2019-05-18T12:55:20.951Z,6.33
2019-05-18T12:57:50.282Z,6.62
2019-05-18T13:00:20.247Z,4.85
2019-05-18T13:02:49.662Z,4.58
2019-05-18T13:05:19.332Z,4.55
2019-05-18T13:07:48.715Z,5.53
2019-05-18T13:10:18.960Z,5.37
2019-05-18T13:12:48.323Z,4.97
2019-05-18T13:15:18.274Z,3.80
2019-05-18T13:17:47.607Z,4.65
2019-05-18T13:20:17.676Z,6.00
2019-05-18T13:22:47.086Z,4.78
2019-05-18T13:25:18.710Z,4.37
2019-05-18T13:27:48.098Z,4.33
2019-05-18T13:30:19.843Z,5.10
2019-05-18T13:32:49.288Z,4.92
2019-05-18T13:35:19.551Z,6.00
2019-05-18T13:37:48.916Z,4.80
2019-05-18T13:40:18.875Z,4.53
2019-05-18T13:42:48.278Z,3.90
2019-05-18T13:45:20.329Z,4.55
2019-05-18T13:47:49.412Z,5.65
2019-05-18T13:50:18.941Z,6.08
2019-05-18T13:52:48.263Z,5.55
2019-05-18T13:55:18.802Z,4.87
2019-05-18T13:57:48.402Z,4.78
2019-05-18T14:00:19.021Z,4.00
2019-05-18T14:02:49.394Z,4.72
2019-05-18T14:05:18.888Z,7.70
2019-05-18T14:07:48.448Z,4.00
2019-05-18T14:10:18.238Z,4.30
2019-05-18T14:12:47.626Z,5.33
2019-05-18T14:15:17.406Z,4.08
2019-05-18T14:17:46.778Z,3.70
2019-05-18T14:20:16.622Z,5.17
2019-05-18T14:22:46.033Z,4.17
2019-05-18T14:25:20.172Z,4.87
2019-05-18T14:27:46.744Z,3.62
2019-05-18T14:30:18.248Z,5.75
2019-05-18T14:32:48.738Z,4.03
2019-05-18T14:35:19.793Z,6.67
2019-05-18T14:37:49.188Z,4.83
2019-05-18T14:40:18.924Z,6.35
2019-05-18T14:42:48.282Z,4.22
2019-05-18T14:45:17.942Z,3.58
2019-05-18T14:47:48.142Z,3.77
2019-05-18T14:50:19.369Z,5.20
2019-05-18T14:52:48.732Z,5.35
2019-05-18T14:55:18.212Z,3.95
2019-05-18T14:57:48.322Z,5.40
2019-05-18T15:00:19.671Z,4.17
2019-05-18T15:02:49.008Z,4.53
2019-05-18T15:05:18.342Z,4.12
2019-05-18T15:07:47.749Z,4.10
2019-05-18T15:10:17.201Z,5.45
2019-05-18T15:12:46.538Z,4.20
2019-05-18T15:15:15.973Z,6.05
2019-05-18T15:17:45.392Z,6.00
2019-05-18T15:20:16.624Z,4.20
2019-05-18T15:22:45.989Z,5.40
2019-05-18T15:25:15.503Z,6.62
2019-05-18T15:27:44.836Z,7.58
2019-05-18T15:30:15.135Z,5.08
2019-05-18T15:32:44.618Z,7.20
2019-05-18T15:35:15.607Z,4.58
2019-05-18T15:37:46.530Z,5.83
2019-05-18T15:40:16.704Z,4.37
2019-05-18T15:42:46.132Z,4.20
2019-05-18T15:45:15.815Z,4.30
2019-05-18T15:47:48.101Z,6.20
2019-05-18T15:50:17.841Z,5.10
2019-05-18T15:52:47.147Z,4.80
2019-05-18T15:55:17.806Z,3.90
2019-05-18T15:57:47.175Z,5.78
2019-05-18T16:00:17.122Z,4.20
2019-05-18T16:02:46.475Z,4.12
2019-05-18T16:05:16.501Z,4.67
2019-05-18T16:07:45.903Z,3.95
2019-05-18T16:10:15.813Z,4.47
2019-05-18T16:12:45.236Z,7.15
2019-05-18T16:15:16.314Z,4.40
2019-05-18T16:17:45.671Z,7.15
2019-05-18T16:20:15.628Z,6.75
2019-05-18T16:22:45.035Z,3.90
2019-05-18T16:25:14.730Z,4.30
2019-05-18T16:27:44.115Z,5.45
2019-05-18T16:30:14.973Z,4.20
2019-05-18T16:32:44.363Z,5.03
2019-05-18T16:35:15.088Z,5.85
2019-05-18T16:37:44.434Z,5.62
2019-05-18T16:40:14.776Z,4.85
2019-05-18T16:42:46.510Z,5.20
2019-05-18T16:45:16.848Z,4.92
2019-05-18T16:47:46.251Z,4.30
2019-05-18T16:50:15.850Z,5.55
2019-05-18T16:52:45.289Z,6.47
2019-05-18T16:55:15.134Z,4.40
2019-05-18T16:57:44.509Z,5.33
2019-05-18T17:00:16.166Z,3.92
2019-05-18T17:02:45.618Z,5.55
2019-05-18T17:05:15.418Z,5.12
2019-05-18T17:07:44.750Z,5.75
2019-05-18T17:10:15.874Z,5.08
2019-05-18T17:12:45.186Z,4.37
2019-05-18T17:15:16.167Z,4.75
2019-05-18T17:17:45.512Z,7.03
2019-05-18T17:20:15.175Z,5.47
2019-05-18T17:22:45.737Z,6.17
2019-05-18T17:25:15.119Z,5.15
2019-05-18T17:27:44.491Z,5.30
2019-05-18T17:30:20.180Z,6.28
2019-05-18T17:32:50.572Z,4.70
2019-05-18T17:35:20.269Z,4.60
2019-05-18T17:37:49.638Z,5.40
2019-05-18T17:40:19.531Z,6.08
2019-05-18T17:42:48.908Z,5.00
2019-05-18T17:45:18.383Z,7.87
2019-05-18T17:47:47.725Z,4.80
2019-05-18T17:50:17.296Z,7.17
2019-05-18T17:52:46.763Z,7.47
2019-05-18T17:55:16.704Z,6.80
2019-05-18T17:57:46.284Z,5.72
2019-05-18T18:00:16.531Z,7.05
2019-05-18T18:02:48.132Z,5.33
2019-05-18T18:05:16.974Z,7.70
2019-05-18T18:07:46.467Z,5.67
2019-05-18T18:10:16.001Z,6.58
2019-05-18T18:12:45.395Z,9.00
2019-05-18T18:15:15.404Z,5.35
2019-05-18T18:17:44.734Z,7.28
2019-05-18T18:20:14.487Z,7.45
2019-05-18T18:22:43.906Z,7.70
2019-05-18T18:25:13.780Z,8.55
2019-05-18T18:27:43.119Z,9.58
2019-05-18T18:30:16.136Z,8.43
2019-05-18T18:32:46.122Z,8.07
2019-05-18T18:35:15.534Z,8.20
2019-05-18T18:37:44.963Z,8.03
2019-05-18T18:40:14.640Z,7.17
2019-05-18T18:42:44.009Z,8.80
2019-05-18T18:45:14.071Z,9.80
2019-05-18T18:47:43.402Z,9.43
2019-05-18T18:50:13.444Z,9.00
2019-05-18T18:52:42.807Z,11.75
2019-05-18T18:55:12.865Z,16.00
2019-05-18T18:57:42.781Z,18.23
2019-05-18T19:00:13.658Z,19.85
2019-05-18T19:02:43.020Z,20.35
2019-05-18T19:05:12.624Z,12.80
2019-05-18T19:07:42.105Z,15.10
2019-05-18T19:10:11.794Z,12.98
2019-05-18T19:12:41.139Z,16.95
2019-05-18T19:15:11.884Z,15.98
2019-05-18T19:17:42.960Z,16.57
2019-05-18T19:20:14.083Z,14.23
2019-05-18T19:22:43.594Z,13.55
2019-05-18T19:25:13.476Z,12.73
2019-05-18T19:27:54.499Z,15.85
2019-05-18T19:30:16.589Z,14.23
2019-05-18T19:32:47.155Z,11.33
2019-05-18T19:35:16.831Z,18.20
2019-05-18T19:37:46.770Z,12.23
2019-05-18T19:40:16.403Z,14.53
2019-05-18T19:42:46.674Z,13.75
2019-05-18T19:45:16.143Z,14.95
2019-05-18T19:47:46.096Z,12.60
2019-05-18T19:50:16.334Z,14.25
2019-05-18T19:52:46.468Z,15.78
2019-05-18T19:55:16.773Z,14.68
2019-05-18T19:57:46.593Z,12.47
2019-05-18T20:00:16.791Z,22.32
2019-05-18T20:02:46.456Z,20.23
2019-05-18T20:05:15.784Z,21.48
2019-05-18T20:07:45.148Z,18.65
2019-05-18T20:10:14.679Z,21.23
2019-05-18T20:12:44.783Z,18.75
2019-05-18T20:15:14.967Z,22.20
2019-05-18T20:17:44.391Z,19.52
2019-05-18T20:20:15.366Z,17.85
2019-05-18T20:22:44.834Z,18.87
2019-05-18T20:25:14.534Z,18.90
2019-05-18T20:27:44.857Z,17.95
2019-05-18T20:30:15.260Z,14.63
2019-05-18T20:32:44.651Z,18.42
2019-05-18T20:35:14.350Z,15.58
2019-05-18T20:37:43.764Z,20.62
2019-05-18T20:40:13.485Z,20.65
2019-05-18T20:42:42.890Z,16.82
2019-05-18T20:45:12.421Z,16.77
2019-05-18T20:47:44.597Z,20.50
2019-05-18T20:50:15.462Z,14.55
2019-05-18T20:52:44.948Z,15.58
2019-05-18T20:55:14.457Z,18.85
2019-05-18T20:57:43.877Z,17.57
2019-05-18T21:00:14.020Z,18.73
2019-05-18T21:02:43.522Z,16.73
2019-05-18T21:05:13.054Z,17.35
2019-05-18T21:07:45.739Z,19.95
2019-05-18T21:10:15.385Z,17.60
2019-05-18T21:12:45.785Z,16.62
2019-05-18T21:15:15.606Z,17.62
2019-05-18T21:17:44.999Z,22.95
2019-05-18T21:20:14.476Z,17.75
2019-05-18T21:22:43.881Z,21.27
2019-05-18T21:25:13.363Z,20.65
2019-05-18T21:27:42.767Z,19.80
2019-05-18T21:30:12.839Z,19.45
2019-05-18T21:32:42.194Z,19.57
2019-05-18T21:35:11.804Z,18.45
2019-05-18T21:37:41.297Z,16.75
2019-05-18T21:40:11.689Z,15.48
2019-05-18T21:42:41.035Z,19.20
2019-05-18T21:45:10.504Z,18.15
2019-05-18T21:47:39.877Z,19.45
2019-05-18T21:50:09.631Z,17.73
2019-05-18T21:52:41.839Z,16.17
2019-05-18T21:55:10.691Z,20.02
2019-05-18T21:57:40.086Z,22.32
2019-05-18T22:00:09.949Z,20.23
2019-05-18T22:02:41.020Z,18.25
2019-05-18T22:05:10.642Z,19.27
2019-05-18T22:07:39.998Z,19.65
2019-05-18T22:10:24.822Z,17.02
2019-05-18T22:12:41.695Z,20.70
2019-05-18T22:15:11.731Z,17.10
2019-05-18T22:17:59.190Z,19.20
2019-05-18T22:20:28.527Z,20.35
2019-05-18T22:22:57.950Z,20.08
2019-05-18T22:25:27.390Z,20.27
2019-05-18T22:27:56.830Z,19.73
2019-05-18T22:30:26.184Z,19.87
2019-05-18T22:32:55.578Z,22.05
2019-05-18T22:35:24.999Z,20.95
2019-05-18T22:37:54.468Z,20.37
2019-05-18T22:40:23.871Z,17.70
2019-05-18T22:42:53.280Z,18.57
2019-05-18T22:45:22.624Z,18.75
2019-05-18T22:47:52.101Z,25.70
2019-05-18T22:50:21.552Z,37.42
2019-05-18T22:52:51.949Z,21.02
2019-05-18T22:55:21.314Z,19.52
2019-05-18T22:57:51.906Z,16.95
2019-05-18T23:00:22.696Z,17.23
2019-05-18T23:02:52.113Z,18.57
2019-05-18T23:05:21.443Z,18.50
2019-05-18T23:07:50.842Z,21.00
2019-05-18T23:10:25.889Z,20.92
2019-05-18T23:12:55.398Z,18.45
2019-05-18T23:15:24.806Z,19.80
2019-05-18T23:17:54.141Z,16.93
2019-05-18T23:20:23.529Z,17.15
2019-05-18T23:22:52.861Z,18.42
2019-05-18T23:25:22.213Z,19.27
2019-05-18T23:27:51.577Z,19.48
2019-05-18T23:30:20.993Z,19.20
2019-05-18T23:32:50.717Z,18.27
2019-05-18T23:35:20.231Z,27.62
2019-05-18T23:37:49.613Z,42.10
2019-05-18T23:40:19.459Z,27.52
2019-05-18T23:42:48.787Z,20.00
2019-05-18T23:45:19.406Z,22.22
2019-05-18T23:47:48.761Z,20.52
2019-05-18T23:50:19.167Z,20.95
2019-05-18T23:52:48.567Z,18.40
2019-05-18T23:55:18.005Z,22.25
2019-05-18T23:57:47.478Z,22.07
